sensor_id;sensor_type;location;lat;lon;timestamp;P1;durP1;ratioP1;P2;durP2;ratioP2
6344;SDS011;3205;42.666;23.264;2023-03-31T00:00:43;19.57;;;9.07;;
6344;SDS011;3205;42.666;23.264;2023-03-31T00:03:09;20.07;;;9.47;;
6344;SDS011;3205;42.666;23.264;2023-03-31T00:05:35;25.17;;;9.10;;
6344;SDS011;3205;42.666;23.264;2023-03-31T00:08:01;18.40;;;7.90;;
6344;SDS011;3205;42.666;23.264;2023-03-31T00:10:28;19.90;;;9.13;;
6344;SDS011;3205;42.666;23.264;2023-03-31T00:12:56;17.60;;;7.60;;
6344;SDS011;3205;42.666;23.264;2023-03-31T00:15:23;19.17;;;8.60;;
6344;SDS011;3205;42.666;23.264;2023-03-31T00:17:49;18.10;;;7.57;;
6344;SDS011;3205;42.666;23.264;2023-03-31T00:20:15;20.87;;;8.07;;
6344;SDS011;3205;42.666;23.264;2023-03-31T00:22:41;18.17;;;7.70;;
6344;SDS011;3205;42.666;23.264;2023-03-31T00:25:11;19.07;;;7.97;;
6344;SDS011;3205;42.666;23.264;2023-03-31T00:27:37;16.40;;;8.60;;
6344;SDS011;3205;42.666;23.264;2023-03-31T00:30:06;14.97;;;7.87;;
6344;SDS011;3205;42.666;23.264;2023-03-31T00:32:34;17.53;;;8.27;;
6344;SDS011;3205;42.666;23.264;2023-03-31T00:35:00;15.00;;;7.73;;
6344;SDS011;3205;42.666;23.264;2023-03-31T00:37:27;15.97;;;8.43;;
6344;SDS011;3205;42.666;23.264;2023-03-31T00:39:53;14.73;;;8.00;;
6344;SDS011;3205;42.666;23.264;2023-03-31T00:42:20;20.00;;;7.97;;
6344;SDS011;3205;42.666;23.264;2023-03-31T00:47:55;16.93;;;7.23;;
6344;SDS011;3205;42.666;23.264;2023-03-31T00:50:29;20.80;;;8.37;;
6344;SDS011;3205;42.666;23.264;2023-03-31T00:53:00;17.23;;;7.73;;
6344;SDS011;3205;42.666;23.264;2023-03-31T00:55:32;21.30;;;7.80;;
6344;SDS011;3205;42.666;23.264;2023-03-31T00:58:02;25.00;;;8.67;;
6344;SDS011;3205;42.666;23.264;2023-03-31T01:00:31;19.83;;;7.77;;
6344;SDS011;3205;42.666;23.264;2023-03-31T01:02:58;22.50;;;7.40;;
6344;SDS011;3205;42.666;23.264;2023-03-31T01:05:28;17.17;;;7.27;;
6344;SDS011;3205;42.666;23.264;2023-03-31T01:07:59;19.80;;;7.53;;
6344;SDS011;3205;42.666;23.264;2023-03-31T01:10:26;20.93;;;7.50;;
6344;SDS011;3205;42.666;23.264;2023-03-31T01:12:54;17.13;;;7.50;;
6344;SDS011;3205;42.666;23.264;2023-03-31T01:15:22;16.13;;;7.67;;
6344;SDS011;3205;42.666;23.264;2023-03-31T01:17:48;18.07;;;7.23;;
6344;SDS011;3205;42.666;23.264;2023-03-31T01:20:18;14.60;;;6.80;;
6344;SDS011;3205;42.666;23.264;2023-03-31T01:23:20;20.53;;;7.97;;
6344;SDS011;3205;42.666;23.264;2023-03-31T01:26:11;21.07;;;7.73;;
6344;SDS011;3205;42.666;23.264;2023-03-31T01:28:50;12.60;;;7.33;;
6344;SDS011;3205;42.666;23.264;2023-03-31T01:31:34;17.77;;;7.57;;
6344;SDS011;3205;42.666;23.264;2023-03-31T01:34:22;15.17;;;7.70;;
6344;SDS011;3205;42.666;23.264;2023-03-31T01:40:13;16.20;;;7.23;;
6344;SDS011;3205;42.666;23.264;2023-03-31T01:42:51;18.67;;;8.07;;
6344;SDS011;3205;42.666;23.264;2023-03-31T01:45:25;23.33;;;8.87;;
6344;SDS011;3205;42.666;23.264;2023-03-31T01:48:01;16.33;;;7.47;;
6344;SDS011;3205;42.666;23.264;2023-03-31T01:50:33;16.10;;;7.57;;
6344;SDS011;3205;42.666;23.264;2023-03-31T01:53:02;14.90;;;7.70;;
6344;SDS011;3205;42.666;23.264;2023-03-31T01:55:35;26.10;;;8.80;;
6344;SDS011;3205;42.666;23.264;2023-03-31T01:58:06;21.73;;;8.33;;
6344;SDS011;3205;42.666;23.264;2023-03-31T02:00:37;18.27;;;7.83;;
6344;SDS011;3205;42.666;23.264;2023-03-31T02:03:10;17.27;;;7.83;;
6344;SDS011;3205;42.666;23.264;2023-03-31T02:05:43;14.57;;;7.03;;
6344;SDS011;3205;42.666;23.264;2023-03-31T02:08:13;17.53;;;8.23;;
6344;SDS011;3205;42.666;23.264;2023-03-31T02:10:45;14.50;;;7.57;;
6344;SDS011;3205;42.666;23.264;2023-03-31T02:13:13;17.63;;;7.90;;
6344;SDS011;3205;42.666;23.264;2023-03-31T02:15:42;27.20;;;9.50;;
6344;SDS011;3205;42.666;23.264;2023-03-31T02:18:13;27.47;;;9.37;;
6344;SDS011;3205;42.666;23.264;2023-03-31T02:20:43;19.20;;;8.10;;
6344;SDS011;3205;42.666;23.264;2023-03-31T02:23:14;21.17;;;8.73;;
6344;SDS011;3205;42.666;23.264;2023-03-31T02:25:44;16.83;;;7.63;;
6344;SDS011;3205;42.666;23.264;2023-03-31T02:28:16;16.67;;;6.30;;
6344;SDS011;3205;42.666;23.264;2023-03-31T02:30:47;8.73;;;3.70;;
6344;SDS011;3205;42.666;23.264;2023-03-31T02:33:22;9.87;;;2.10;;
6344;SDS011;3205;42.666;23.264;2023-03-31T02:35:48;6.53;;;2.10;;
6344;SDS011;3205;42.666;23.264;2023-03-31T02:38:15;8.90;;;2.00;;
6344;SDS011;3205;42.666;23.264;2023-03-31T02:40:42;6.77;;;1.60;;
6344;SDS011;3205;42.666;23.264;2023-03-31T02:43:08;3.77;;;2.13;;
6344;SDS011;3205;42.666;23.264;2023-03-31T02:45:36;4.90;;;1.90;;
6344;SDS011;3205;42.666;23.264;2023-03-31T02:48:04;6.73;;;2.03;;
6344;SDS011;3205;42.666;23.264;2023-03-31T02:50:36;5.83;;;2.00;;
6344;SDS011;3205;42.666;23.264;2023-03-31T02:53:16;4.83;;;1.70;;
6344;SDS011;3205;42.666;23.264;2023-03-31T02:55:55;2.67;;;1.97;;
6344;SDS011;3205;42.666;23.264;2023-03-31T03:01:43;4.00;;;2.10;;
6344;SDS011;3205;42.666;23.264;2023-03-31T03:04:29;5.20;;;1.80;;
6344;SDS011;3205;42.666;23.264;2023-03-31T03:07:08;4.07;;;2.43;;
6344;SDS011;3205;42.666;23.264;2023-03-31T03:09:43;2.67;;;2.20;;
6344;SDS011;3205;42.666;23.264;2023-03-31T03:12:19;5.43;;;2.27;;
6344;SDS011;3205;42.666;23.264;2023-03-31T03:14:50;3.63;;;1.83;;
6344;SDS011;3205;42.666;23.264;2023-03-31T03:17:21;5.43;;;2.23;;
6344;SDS011;3205;42.666;23.264;2023-03-31T03:19:52;4.63;;;2.13;;
6344;SDS011;3205;42.666;23.264;2023-03-31T03:22:20;3.43;;;2.00;;
6344;SDS011;3205;42.666;23.264;2023-03-31T03:24:47;3.83;;;1.93;;
6344;SDS011;3205;42.666;23.264;2023-03-31T03:27:13;4.23;;;2.00;;
6344;SDS011;3205;42.666;23.264;2023-03-31T03:29:40;2.57;;;1.87;;
6344;SDS011;3205;42.666;23.264;2023-03-31T03:32:08;3.73;;;2.10;;
6344;SDS011;3205;42.666;23.264;2023-03-31T03:34:34;8.50;;;2.93;;
6344;SDS011;3205;42.666;23.264;2023-03-31T03:37:00;5.30;;;2.30;;
6344;SDS011;3205;42.666;23.264;2023-03-31T03:39:26;4.17;;;1.97;;
6344;SDS011;3205;42.666;23.264;2023-03-31T03:41:52;10.13;;;2.50;;
6344;SDS011;3205;42.666;23.264;2023-03-31T03:44:18;4.83;;;2.70;;
6344;SDS011;3205;42.666;23.264;2023-03-31T03:46:44;6.43;;;2.60;;
6344;SDS011;3205;42.666;23.264;2023-03-31T03:49:11;2.93;;;2.10;;
6344;SDS011;3205;42.666;23.264;2023-03-31T03:51:37;4.73;;;2.37;;
6344;SDS011;3205;42.666;23.264;2023-03-31T03:54:03;2.27;;;2.00;;
6344;SDS011;3205;42.666;23.264;2023-03-31T03:56:30;4.40;;;1.90;;
6344;SDS011;3205;42.666;23.264;2023-03-31T03:58:56;3.93;;;2.43;;
6344;SDS011;3205;42.666;23.264;2023-03-31T04:01:22;5.97;;;2.50;;
6344;SDS011;3205;42.666;23.264;2023-03-31T04:03:48;4.63;;;3.10;;
6344;SDS011;3205;42.666;23.264;2023-03-31T04:06:15;9.33;;;3.47;;
6344;SDS011;3205;42.666;23.264;2023-03-31T04:08:41;8.20;;;3.67;;
6344;SDS011;3205;42.666;23.264;2023-03-31T04:11:09;7.20;;;3.50;;
6344;SDS011;3205;42.666;23.264;2023-03-31T04:13:37;12.40;;;3.07;;
6344;SDS011;3205;42.666;23.264;2023-03-31T04:16:05;4.17;;;2.60;;
6344;SDS011;3205;42.666;23.264;2023-03-31T04:18:32;4.70;;;2.77;;
6344;SDS011;3205;42.666;23.264;2023-03-31T04:21:02;6.23;;;2.80;;
6344;SDS011;3205;42.666;23.264;2023-03-31T04:23:29;14.43;;;3.73;;
6344;SDS011;3205;42.666;23.264;2023-03-31T04:25:56;5.20;;;2.90;;
6344;SDS011;3205;42.666;23.264;2023-03-31T04:28:22;4.43;;;2.57;;
6344;SDS011;3205;42.666;23.264;2023-03-31T04:30:50;4.53;;;2.37;;
6344;SDS011;3205;42.666;23.264;2023-03-31T04:33:18;4.43;;;2.60;;
6344;SDS011;3205;42.666;23.264;2023-03-31T04:35:45;7.87;;;2.63;;
6344;SDS011;3205;42.666;23.264;2023-03-31T04:38:16;10.17;;;3.23;;
6344;SDS011;3205;42.666;23.264;2023-03-31T04:40:44;7.23;;;2.53;;
6344;SDS011;3205;42.666;23.264;2023-03-31T04:43:11;6.67;;;2.97;;
6344;SDS011;3205;42.666;23.264;2023-03-31T04:45:37;5.80;;;2.90;;
6344;SDS011;3205;42.666;23.264;2023-03-31T04:48:03;6.50;;;2.60;;
6344;SDS011;3205;42.666;23.264;2023-03-31T04:50:30;6.80;;;2.27;;
6344;SDS011;3205;42.666;23.264;2023-03-31T04:52:56;3.77;;;2.10;;
6344;SDS011;3205;42.666;23.264;2023-03-31T04:55:23;3.87;;;2.43;;
6344;SDS011;3205;42.666;23.264;2023-03-31T04:57:50;11.13;;;2.97;;
6344;SDS011;3205;42.666;23.264;2023-03-31T05:00:16;5.87;;;2.93;;
6344;SDS011;3205;42.666;23.264;2023-03-31T05:02:43;6.40;;;2.67;;
6344;SDS011;3205;42.666;23.264;2023-03-31T05:05:09;6.17;;;2.07;;
6344;SDS011;3205;42.666;23.264;2023-03-31T05:07:36;5.97;;;2.30;;
6344;SDS011;3205;42.666;23.264;2023-03-31T05:10:02;8.67;;;2.73;;
6344;SDS011;3205;42.666;23.264;2023-03-31T05:12:29;8.43;;;2.60;;
6344;SDS011;3205;42.666;23.264;2023-03-31T05:14:59;8.63;;;2.27;;
6344;SDS011;3205;42.666;23.264;2023-03-31T05:17:26;5.57;;;1.80;;
6344;SDS011;3205;42.666;23.264;2023-03-31T05:19:52;3.90;;;1.90;;
6344;SDS011;3205;42.666;23.264;2023-03-31T05:22:18;3.77;;;2.47;;
6344;SDS011;3205;42.666;23.264;2023-03-31T05:24:44;6.57;;;2.13;;
6344;SDS011;3205;42.666;23.264;2023-03-31T05:27:11;6.50;;;2.70;;
6344;SDS011;3205;42.666;23.264;2023-03-31T05:29:37;8.43;;;2.67;;
6344;SDS011;3205;42.666;23.264;2023-03-31T05:32:04;14.57;;;4.13;;
6344;SDS011;3205;42.666;23.264;2023-03-31T05:34:30;11.03;;;3.73;;
6344;SDS011;3205;42.666;23.264;2023-03-31T05:36:56;7.13;;;3.97;;
6344;SDS011;3205;42.666;23.264;2023-03-31T05:39:22;12.80;;;4.37;;
6344;SDS011;3205;42.666;23.264;2023-03-31T05:41:49;17.47;;;3.20;;
6344;SDS011;3205;42.666;23.264;2023-03-31T05:44:15;11.30;;;2.57;;
6344;SDS011;3205;42.666;23.264;2023-03-31T05:46:41;10.43;;;2.60;;
6344;SDS011;3205;42.666;23.264;2023-03-31T05:49:08;11.27;;;2.83;;
6344;SDS011;3205;42.666;23.264;2023-03-31T05:51:35;4.87;;;2.50;;
6344;SDS011;3205;42.666;23.264;2023-03-31T05:54:01;7.85;;;2.55;;
6344;SDS011;3205;42.666;23.264;2023-03-31T05:56:27;13.25;;;2.40;;
6344;SDS011;3205;42.666;23.264;2023-03-31T05:58:54;6.43;;;1.92;;
6344;SDS011;3205;42.666;23.264;2023-03-31T06:01:20;7.68;;;2.40;;
6344;SDS011;3205;42.666;23.264;2023-03-31T06:03:47;3.60;;;2.05;;
6344;SDS011;3205;42.666;23.264;2023-03-31T06:06:15;6.05;;;2.13;;
6344;SDS011;3205;42.666;23.264;2023-03-31T06:08:41;4.55;;;2.60;;
6344;SDS011;3205;42.666;23.264;2023-03-31T06:11:09;7.10;;;2.38;;
6344;SDS011;3205;42.666;23.264;2023-03-31T06:13:37;7.38;;;2.60;;
6344;SDS011;3205;42.666;23.264;2023-03-31T06:16:04;9.88;;;2.45;;
6344;SDS011;3205;42.666;23.264;2023-03-31T06:18:32;4.57;;;1.50;;
6344;SDS011;3205;42.666;23.264;2023-03-31T06:20:59;5.57;;;2.00;;
6344;SDS011;3205;42.666;23.264;2023-03-31T06:23:26;4.73;;;1.87;;
6344;SDS011;3205;42.666;23.264;2023-03-31T06:25:53;7.67;;;2.37;;
6344;SDS011;3205;42.666;23.264;2023-03-31T06:28:19;8.60;;;1.97;;
6344;SDS011;3205;42.666;23.264;2023-03-31T06:30:46;8.47;;;2.10;;
6344;SDS011;3205;42.666;23.264;2023-03-31T06:33:12;11.10;;;2.20;;
6344;SDS011;3205;42.666;23.264;2023-03-31T06:35:38;6.27;;;2.10;;
6344;SDS011;3205;42.666;23.264;2023-03-31T06:38:06;4.63;;;2.27;;
6344;SDS011;3205;42.666;23.264;2023-03-31T06:40:32;3.17;;;2.10;;
6344;SDS011;3205;42.666;23.264;2023-03-31T06:42:59;4.25;;;2.10;;
6344;SDS011;3205;42.666;23.264;2023-03-31T06:45:25;3.65;;;2.30;;
6344;SDS011;3205;42.666;23.264;2023-03-31T06:47:51;3.78;;;2.72;;
6344;SDS011;3205;42.666;23.264;2023-03-31T06:50:17;3.95;;;2.25;;
6344;SDS011;3205;42.666;23.264;2023-03-31T06:52:43;8.45;;;2.33;;
6344;SDS011;3205;42.666;23.264;2023-03-31T06:55:09;9.18;;;2.97;;
6344;SDS011;3205;42.666;23.264;2023-03-31T06:57:37;8.73;;;3.08;;
6344;SDS011;3205;42.666;23.264;2023-03-31T07:00:04;10.15;;;3.35;;
6344;SDS011;3205;42.666;23.264;2023-03-31T07:02:32;12.15;;;2.75;;
6344;SDS011;3205;42.666;23.264;2023-03-31T07:04:58;6.47;;;2.30;;
6344;SDS011;3205;42.666;23.264;2023-03-31T07:07:24;10.63;;;2.70;;
6344;SDS011;3205;42.666;23.264;2023-03-31T07:09:50;8.23;;;2.65;;
6344;SDS011;3205;42.666;23.264;2023-03-31T07:12:16;10.57;;;2.83;;
6344;SDS011;3205;42.666;23.264;2023-03-31T07:14:43;2.83;;;2.42;;
6344;SDS011;3205;42.666;23.264;2023-03-31T07:17:10;7.72;;;2.30;;
6344;SDS011;3205;42.666;23.264;2023-03-31T07:19:36;6.22;;;2.63;;
6344;SDS011;3205;42.666;23.264;2023-03-31T07:22:02;7.25;;;2.92;;
6344;SDS011;3205;42.666;23.264;2023-03-31T07:24:28;3.70;;;2.90;;
6344;SDS011;3205;42.666;23.264;2023-03-31T07:26:55;8.45;;;2.65;;
6344;SDS011;3205;42.666;23.264;2023-03-31T07:29:21;6.90;;;2.97;;
6344;SDS011;3205;42.666;23.264;2023-03-31T07:31:47;7.35;;;3.45;;
6344;SDS011;3205;42.666;23.264;2023-03-31T07:34:14;8.93;;;3.22;;
6344;SDS011;3205;42.666;23.264;2023-03-31T07:36:40;13.07;;;3.30;;
6344;SDS011;3205;42.666;23.264;2023-03-31T07:39:06;11.77;;;2.83;;
6344;SDS011;3205;42.666;23.264;2023-03-31T07:41:32;8.00;;;2.45;;
6344;SDS011;3205;42.666;23.264;2023-03-31T07:43:59;5.30;;;2.90;;
6344;SDS011;3205;42.666;23.264;2023-03-31T07:46:25;6.35;;;2.83;;
6344;SDS011;3205;42.666;23.264;2023-03-31T07:48:54;9.82;;;3.30;;
6344;SDS011;3205;42.666;23.264;2023-03-31T07:51:23;6.13;;;3.10;;
6344;SDS011;3205;42.666;23.264;2023-03-31T07:53:50;5.10;;;3.28;;
6344;SDS011;3205;42.666;23.264;2023-03-31T07:56:17;11.25;;;3.53;;
6344;SDS011;3205;42.666;23.264;2023-03-31T07:58:44;6.60;;;2.47;;
6344;SDS011;3205;42.666;23.264;2023-03-31T08:01:12;16.67;;;4.38;;
6344;SDS011;3205;42.666;23.264;2023-03-31T08:03:41;6.50;;;3.03;;
6344;SDS011;3205;42.666;23.264;2023-03-31T08:06:07;4.35;;;2.85;;
6344;SDS011;3205;42.666;23.264;2023-03-31T08:08:34;5.43;;;2.47;;
6344;SDS011;3205;42.666;23.264;2023-03-31T08:11:02;4.75;;;2.97;;
6344;SDS011;3205;42.666;23.264;2023-03-31T08:13:28;6.60;;;2.80;;
6344;SDS011;3205;42.666;23.264;2023-03-31T08:15:55;12.73;;;3.22;;
6344;SDS011;3205;42.666;23.264;2023-03-31T08:18:21;5.38;;;2.55;;
6344;SDS011;3205;42.666;23.264;2023-03-31T08:20:47;9.45;;;3.20;;
6344;SDS011;3205;42.666;23.264;2023-03-31T08:23:14;6.00;;;2.83;;
6344;SDS011;3205;42.666;23.264;2023-03-31T08:25:41;11.07;;;4.07;;
6344;SDS011;3205;42.666;23.264;2023-03-31T08:28:07;8.60;;;3.03;;
6344;SDS011;3205;42.666;23.264;2023-03-31T08:30:35;4.32;;;2.95;;
6344;SDS011;3205;42.666;23.264;2023-03-31T08:33:02;8.63;;;3.63;;
6344;SDS011;3205;42.666;23.264;2023-03-31T08:35:28;7.78;;;3.28;;
6344;SDS011;3205;42.666;23.264;2023-03-31T08:37:54;5.63;;;3.00;;
6344;SDS011;3205;42.666;23.264;2023-03-31T08:40:22;10.75;;;2.90;;
6344;SDS011;3205;42.666;23.264;2023-03-31T08:42:50;6.63;;;3.30;;
6344;SDS011;3205;42.666;23.264;2023-03-31T08:45:21;7.25;;;3.10;;
6344;SDS011;3205;42.666;23.264;2023-03-31T08:47:49;8.65;;;3.00;;
6344;SDS011;3205;42.666;23.264;2023-03-31T08:50:22;13.57;;;3.45;;
6344;SDS011;3205;42.666;23.264;2023-03-31T08:52:54;7.88;;;2.85;;
6344;SDS011;3205;42.666;23.264;2023-03-31T08:55:28;14.57;;;4.72;;
6344;SDS011;3205;42.666;23.264;2023-03-31T08:58:00;9.80;;;5.22;;
6344;SDS011;3205;42.666;23.264;2023-03-31T09:00:34;13.32;;;3.53;;
6344;SDS011;3205;42.666;23.264;2023-03-31T09:03:08;11.30;;;3.38;;
6344;SDS011;3205;42.666;23.264;2023-03-31T09:05:43;7.85;;;3.40;;
6344;SDS011;3205;42.666;23.264;2023-03-31T09:08:18;8.55;;;3.00;;
6344;SDS011;3205;42.666;23.264;2023-03-31T09:10:58;10.82;;;3.17;;
6344;SDS011;3205;42.666;23.264;2023-03-31T09:16:27;5.40;;;2.83;;
6344;SDS011;3205;42.666;23.264;2023-03-31T09:19:00;6.20;;;2.28;;
6344;SDS011;3205;42.666;23.264;2023-03-31T09:21:27;8.00;;;2.53;;
6344;SDS011;3205;42.666;23.264;2023-03-31T09:23:57;11.98;;;2.42;;
6344;SDS011;3205;42.666;23.264;2023-03-31T09:26:31;8.82;;;4.15;;
6344;SDS011;3205;42.666;23.264;2023-03-31T09:29:06;15.35;;;4.18;;
6344;SDS011;3205;42.666;23.264;2023-03-31T09:31:40;16.63;;;2.92;;
6344;SDS011;3205;42.666;23.264;2023-03-31T09:34:11;3.65;;;2.38;;
6344;SDS011;3205;42.666;23.264;2023-03-31T09:36:39;6.53;;;3.00;;
6344;SDS011;3205;42.666;23.264;2023-03-31T09:39:07;5.25;;;2.20;;
6344;SDS011;3205;42.666;23.264;2023-03-31T09:42:09;8.02;;;2.50;;
6344;SDS011;3205;42.666;23.264;2023-03-31T09:44:37;5.95;;;2.50;;
6344;SDS011;3205;42.666;23.264;2023-03-31T09:47:05;8.48;;;2.58;;
6344;SDS011;3205;42.666;23.264;2023-03-31T09:49:36;4.15;;;2.55;;
6344;SDS011;3205;42.666;23.264;2023-03-31T09:52:04;9.88;;;2.22;;
6344;SDS011;3205;42.666;23.264;2023-03-31T09:54:37;7.43;;;2.90;;
6344;SDS011;3205;42.666;23.264;2023-03-31T09:57:13;9.15;;;2.45;;
6344;SDS011;3205;42.666;23.264;2023-03-31T09:59:48;9.60;;;2.60;;
6344;SDS011;3205;42.666;23.264;2023-03-31T10:02:20;16.92;;;2.72;;
6344;SDS011;3205;42.666;23.264;2023-03-31T10:04:58;10.30;;;2.67;;
6344;SDS011;3205;42.666;23.264;2023-03-31T10:07:24;5.70;;;2.78;;
6344;SDS011;3205;42.666;23.264;2023-03-31T10:09:51;5.45;;;2.45;;
6344;SDS011;3205;42.666;23.264;2023-03-31T10:12:19;6.38;;;1.95;;
6344;SDS011;3205;42.666;23.264;2023-03-31T10:14:50;9.35;;;2.40;;
6344;SDS011;3205;42.666;23.264;2023-03-31T10:17:18;7.65;;;2.95;;
6344;SDS011;3205;42.666;23.264;2023-03-31T10:19:49;6.80;;;2.53;;
6344;SDS011;3205;42.666;23.264;2023-03-31T10:22:25;7.25;;;2.45;;
6344;SDS011;3205;42.666;23.264;2023-03-31T10:24:53;4.65;;;2.22;;
6344;SDS011;3205;42.666;23.264;2023-03-31T10:27:32;3.95;;;2.08;;
6344;SDS011;3205;42.666;23.264;2023-03-31T10:30:00;8.13;;;2.47;;
6344;SDS011;3205;42.666;23.264;2023-03-31T10:32:28;6.60;;;2.00;;
6344;SDS011;3205;42.666;23.264;2023-03-31T10:34:56;6.25;;;2.10;;
6344;SDS011;3205;42.666;23.264;2023-03-31T10:37:24;5.90;;;2.42;;
6344;SDS011;3205;42.666;23.264;2023-03-31T10:39:55;8.20;;;2.45;;
6344;SDS011;3205;42.666;23.264;2023-03-31T10:42:23;8.05;;;2.30;;
6344;SDS011;3205;42.666;23.264;2023-03-31T10:44:51;12.55;;;2.63;;
6344;SDS011;3205;42.666;23.264;2023-03-31T10:47:37;10.25;;;2.40;;
6344;SDS011;3205;42.666;23.264;2023-03-31T10:50:08;9.02;;;2.88;;
6344;SDS011;3205;42.666;23.264;2023-03-31T10:52:42;7.97;;;2.63;;
6344;SDS011;3205;42.666;23.264;2023-03-31T10:55:10;13.70;;;4.25;;
6344;SDS011;3205;42.666;23.264;2023-03-31T10:57:39;15.27;;;4.47;;
6344;SDS011;3205;42.666;23.264;2023-03-31T11:00:16;9.23;;;2.95;;
6344;SDS011;3205;42.666;23.264;2023-03-31T11:02:59;9.57;;;3.65;;
6344;SDS011;3205;42.666;23.264;2023-03-31T11:05:48;11.65;;;2.78;;
6344;SDS011;3205;42.666;23.264;2023-03-31T11:08:20;8.10;;;2.70;;
6344;SDS011;3205;42.666;23.264;2023-03-31T11:11:05;8.75;;;2.92;;
6344;SDS011;3205;42.666;23.264;2023-03-31T11:13:40;10.23;;;2.70;;
6344;SDS011;3205;42.666;23.264;2023-03-31T11:16:16;11.75;;;2.35;;
6344;SDS011;3205;42.666;23.264;2023-03-31T11:18:53;7.70;;;2.60;;
6344;SDS011;3205;42.666;23.264;2023-03-31T11:21:33;7.25;;;2.58;;
6344;SDS011;3205;42.666;23.264;2023-03-31T11:24:09;7.45;;;2.60;;
6344;SDS011;3205;42.666;23.264;2023-03-31T11:26:44;6.35;;;2.45;;
6344;SDS011;3205;42.666;23.264;2023-03-31T11:29:20;9.20;;;2.53;;
6344;SDS011;3205;42.666;23.264;2023-03-31T11:31:56;8.57;;;2.38;;
6344;SDS011;3205;42.666;23.264;2023-03-31T11:34:38;9.10;;;2.20;;
6344;SDS011;3205;42.666;23.264;2023-03-31T11:37:20;6.03;;;2.38;;
6344;SDS011;3205;42.666;23.264;2023-03-31T11:40:05;4.65;;;1.80;;
6344;SDS011;3205;42.666;23.264;2023-03-31T11:42:45;5.07;;;2.35;;
6344;SDS011;3205;42.666;23.264;2023-03-31T11:45:15;9.73;;;2.67;;
6344;SDS011;3205;42.666;23.264;2023-03-31T11:47:47;6.55;;;2.38;;
6344;SDS011;3205;42.666;23.264;2023-03-31T11:50:17;8.88;;;2.80;;
6344;SDS011;3205;42.666;23.264;2023-03-31T11:52:48;16.08;;;3.17;;
6344;SDS011;3205;42.666;23.264;2023-03-31T11:55:21;6.97;;;3.22;;
6344;SDS011;3205;42.666;23.264;2023-03-31T11:57:51;9.85;;;2.25;;
6344;SDS011;3205;42.666;23.264;2023-03-31T12:00:26;7.47;;;2.85;;
6344;SDS011;3205;42.666;23.264;2023-03-31T12:02:57;4.30;;;1.90;;
6344;SDS011;3205;42.666;23.264;2023-03-31T12:05:31;8.68;;;2.30;;
6344;SDS011;3205;42.666;23.264;2023-03-31T12:08:02;3.75;;;2.30;;
6344;SDS011;3205;42.666;23.264;2023-03-31T12:10:33;9.02;;;2.08;;
6344;SDS011;3205;42.666;23.264;2023-03-31T12:13:01;6.43;;;2.10;;
6344;SDS011;3205;42.666;23.264;2023-03-31T12:15:53;2.55;;;1.88;;
6344;SDS011;3205;42.666;23.264;2023-03-31T12:18:27;4.63;;;1.80;;
6344;SDS011;3205;42.666;23.264;2023-03-31T12:20:59;7.50;;;2.15;;
6344;SDS011;3205;42.666;23.264;2023-03-31T12:23:29;6.20;;;2.17;;
6344;SDS011;3205;42.666;23.264;2023-03-31T12:26:01;6.25;;;2.08;;
6344;SDS011;3205;42.666;23.264;2023-03-31T12:28:32;5.30;;;2.20;;
6344;SDS011;3205;42.666;23.264;2023-03-31T12:31:01;5.10;;;2.00;;
6344;SDS011;3205;42.666;23.264;2023-03-31T12:33:31;6.60;;;2.03;;
6344;SDS011;3205;42.666;23.264;2023-03-31T12:36:06;9.20;;;2.50;;
6344;SDS011;3205;42.666;23.264;2023-03-31T12:38:49;4.57;;;2.08;;
6344;SDS011;3205;42.666;23.264;2023-03-31T12:41:23;8.50;;;2.13;;
6344;SDS011;3205;42.666;23.264;2023-03-31T12:47:01;3.40;;;1.80;;
6344;SDS011;3205;42.666;23.264;2023-03-31T12:49:38;5.45;;;1.92;;
6344;SDS011;3205;42.666;23.264;2023-03-31T12:52:17;6.97;;;1.67;;
6344;SDS011;3205;42.666;23.264;2023-03-31T12:55:01;7.00;;;2.35;;
6344;SDS011;3205;42.666;23.264;2023-03-31T12:57:45;4.30;;;1.85;;
6344;SDS011;3205;42.666;23.264;2023-03-31T13:00:17;4.63;;;1.63;;
6344;SDS011;3205;42.666;23.264;2023-03-31T13:02:46;6.45;;;1.77;;
6344;SDS011;3205;42.666;23.264;2023-03-31T13:11:21;10.30;;;4.65;;
6344;SDS011;3205;42.666;23.264;2023-03-31T13:14:00;6.78;;;1.95;;
6344;SDS011;3205;42.666;23.264;2023-03-31T13:16:27;4.63;;;1.95;;
6344;SDS011;3205;42.666;23.264;2023-03-31T13:18:54;6.65;;;2.20;;
6344;SDS011;3205;42.666;23.264;2023-03-31T13:21:22;5.32;;;2.15;;
6344;SDS011;3205;42.666;23.264;2023-03-31T13:23:49;7.13;;;2.20;;
6344;SDS011;3205;42.666;23.264;2023-03-31T13:26:35;6.25;;;2.42;;
6344;SDS011;3205;42.666;23.264;2023-03-31T13:29:17;11.02;;;3.13;;
6344;SDS011;3205;42.666;23.264;2023-03-31T13:34:32;7.68;;;2.20;;
6344;SDS011;3205;42.666;23.264;2023-03-31T13:37:06;5.20;;;2.17;;
6344;SDS011;3205;42.666;23.264;2023-03-31T13:42:50;10.35;;;2.55;;
6344;SDS011;3205;42.666;23.264;2023-03-31T13:45:39;6.53;;;2.42;;
6344;SDS011;3205;42.666;23.264;2023-03-31T13:48:32;12.43;;;3.00;;
6344;SDS011;3205;42.666;23.264;2023-03-31T13:51:17;6.70;;;2.58;;
6344;SDS011;3205;42.666;23.264;2023-03-31T13:54:01;3.17;;;2.15;;
6344;SDS011;3205;42.666;23.264;2023-03-31T13:56:40;5.00;;;2.15;;
6344;SDS011;3205;42.666;23.264;2023-03-31T13:59:24;8.30;;;2.20;;
6344;SDS011;3205;42.666;23.264;2023-03-31T14:02:04;7.22;;;2.42;;
6344;SDS011;3205;42.666;23.264;2023-03-31T14:05:02;9.30;;;2.80;;
6344;SDS011;3205;42.666;23.264;2023-03-31T14:07:53;3.75;;;2.20;;
6344;SDS011;3205;42.666;23.264;2023-03-31T14:10:23;6.63;;;2.10;;
6344;SDS011;3205;42.666;23.264;2023-03-31T14:12:51;6.15;;;2.00;;
6344;SDS011;3205;42.666;23.264;2023-03-31T14:15:29;9.27;;;2.30;;
6344;SDS011;3205;42.666;23.264;2023-03-31T14:17:56;10.57;;;2.85;;
6344;SDS011;3205;42.666;23.264;2023-03-31T14:20:25;9.60;;;2.25;;
6344;SDS011;3205;42.666;23.264;2023-03-31T14:23:02;6.95;;;2.13;;
6344;SDS011;3205;42.666;23.264;2023-03-31T14:25:36;14.32;;;2.42;;
6344;SDS011;3205;42.666;23.264;2023-03-31T14:28:13;7.60;;;2.70;;
6344;SDS011;3205;42.666;23.264;2023-03-31T14:30:51;6.15;;;2.42;;
6344;SDS011;3205;42.666;23.264;2023-03-31T14:33:31;7.63;;;2.47;;
6344;SDS011;3205;42.666;23.264;2023-03-31T14:36:06;3.33;;;1.80;;
6344;SDS011;3205;42.666;23.264;2023-03-31T14:38:36;3.10;;;1.83;;
6344;SDS011;3205;42.666;23.264;2023-03-31T14:41:02;11.43;;;2.45;;
6344;SDS011;3205;42.666;23.264;2023-03-31T14:43:30;7.25;;;2.25;;
6344;SDS011;3205;42.666;23.264;2023-03-31T14:45:58;8.18;;;2.53;;
6344;SDS011;3205;42.666;23.264;2023-03-31T14:48:26;5.68;;;1.70;;
6344;SDS011;3205;42.666;23.264;2023-03-31T14:50:55;8.18;;;2.03;;
6344;SDS011;3205;42.666;23.264;2023-03-31T14:53:23;5.07;;;2.05;;
6344;SDS011;3205;42.666;23.264;2023-03-31T14:55:51;11.98;;;2.35;;
6344;SDS011;3205;42.666;23.264;2023-03-31T14:58:25;5.90;;;2.95;;
6344;SDS011;3205;42.666;23.264;2023-03-31T15:00:54;5.07;;;2.47;;
6344;SDS011;3205;42.666;23.264;2023-03-31T15:03:20;5.55;;;1.98;;
6344;SDS011;3205;42.666;23.264;2023-03-31T15:05:47;8.63;;;2.45;;
6344;SDS011;3205;42.666;23.264;2023-03-31T15:08:14;8.20;;;2.45;;
6344;SDS011;3205;42.666;23.264;2023-03-31T15:10:43;14.38;;;2.63;;
6344;SDS011;3205;42.666;23.264;2023-03-31T15:13:15;8.87;;;2.20;;
6344;SDS011;3205;42.666;23.264;2023-03-31T15:15:45;12.38;;;2.65;;
6344;SDS011;3205;42.666;23.264;2023-03-31T15:18:12;8.63;;;2.60;;
6344;SDS011;3205;42.666;23.264;2023-03-31T15:20:41;11.00;;;3.13;;
6344;SDS011;3205;42.666;23.264;2023-03-31T15:23:17;11.20;;;2.55;;
6344;SDS011;3205;42.666;23.264;2023-03-31T15:25:49;12.27;;;2.90;;
6344;SDS011;3205;42.666;23.264;2023-03-31T15:28:18;7.47;;;2.25;;
6344;SDS011;3205;42.666;23.264;2023-03-31T15:33:51;6.45;;;2.33;;
6344;SDS011;3205;42.666;23.264;2023-03-31T15:36:18;9.60;;;3.13;;
6344;SDS011;3205;42.666;23.264;2023-03-31T15:38:45;7.47;;;2.30;;
6344;SDS011;3205;42.666;23.264;2023-03-31T15:41:19;7.70;;;2.90;;
6344;SDS011;3205;42.666;23.264;2023-03-31T15:43:47;8.57;;;2.80;;
6344;SDS011;3205;42.666;23.264;2023-03-31T15:46:17;7.53;;;2.87;;
6344;SDS011;3205;42.666;23.264;2023-03-31T15:48:49;7.78;;;2.25;;